createdAt,value
2022-12-08T00:01:44.872Z,87.42
2022-12-08T00:07:06.769Z,87.42
2022-12-08T00:12:12.579Z,87.34
2022-12-08T00:17:20.271Z,87.25
2022-12-08T00:22:23.304Z,87.32
2022-12-08T00:27:26.233Z,87.24
2022-12-08T00:32:29.238Z,87.26
2022-12-08T00:37:32.181Z,87.29
2022-12-08T00:42:35.210Z,87.25
2022-12-08T00:47:38.243Z,87.32
2022-12-08T00:52:41.172Z,87.25
2022-12-08T00:57:44.172Z,87.06
2022-12-08T01:02:47.152Z,87.03
2022-12-08T01:07:50.383Z,87.03
2022-12-08T01:12:53.386Z,86.87
2022-12-08T01:17:56.386Z,86.73
2022-12-08T01:22:59.336Z,86.51
2022-12-08T01:28:02.321Z,86.19
2022-12-08T01:33:05.662Z,86.34
2022-12-08T01:38:08.701Z,86.25
2022-12-08T01:43:21.498Z,86.22
2022-12-08T01:48:27.755Z,86.15
2022-12-08T01:53:33.422Z,86.08
2022-12-08T01:58:42.963Z,86.24
2022-12-08T02:04:02.154Z,86.15
2022-12-08T02:09:07.047Z,86.29
2022-12-08T02:14:14.121Z,86.19
2022-12-08T02:19:52.711Z,86.22
2022-12-08T02:25:10.885Z,86.30
2022-12-08T02:30:58.143Z,86.17
2022-12-08T02:36:25.253Z,86.10
2022-12-08T02:41:53.716Z,86.17
2022-12-08T02:47:05.344Z,86.31
2022-12-08T02:52:14.411Z,86.35
2022-12-08T02:57:48.410Z,86.44
2022-12-08T03:03:25.021Z,86.41
2022-12-08T03:09:14.357Z,86.57
2022-12-08T03:14:18.388Z,86.61
2022-12-08T03:19:27.798Z,86.60
2022-12-08T03:24:39.367Z,86.80
2022-12-08T03:29:42.944Z,86.92
2022-12-08T03:34:48.794Z,87.04
2022-12-08T03:39:51.741Z,87.06
2022-12-08T03:44:54.766Z,87.35
2022-12-08T03:49:57.676Z,87.72
2022-12-08T03:55:00.608Z,87.66
2022-12-08T04:00:06.920Z,87.68
2022-12-08T04:05:10.499Z,87.78
2022-12-08T04:10:13.535Z,87.93
2022-12-08T04:15:16.472Z,88.24
2022-12-08T04:20:19.367Z,88.36
2022-12-08T04:25:22.350Z,88.42
2022-12-08T04:30:25.455Z,88.39
2022-12-08T04:35:28.778Z,88.49
2022-12-08T04:40:32.102Z,88.50
2022-12-08T04:45:35.527Z,88.45
2022-12-08T04:50:42.237Z,88.43
2022-12-08T04:55:45.732Z,88.50
2022-12-08T05:00:49.135Z,88.49
2022-12-08T05:05:52.153Z,88.29
2022-12-08T05:11:03.653Z,88.27
2022-12-08T05:16:14.325Z,88.19
2022-12-08T05:21:17.353Z,88.12
2022-12-08T05:26:20.594Z,88.09
2022-12-08T05:31:23.885Z,88.07
2022-12-08T05:36:26.890Z,87.99
2022-12-08T05:41:30.060Z,87.89
2022-12-08T05:46:33.352Z,87.83
2022-12-08T05:51:36.457Z,87.78
2022-12-08T05:56:39.511Z,87.67
2022-12-08T06:01:42.892Z,87.54
2022-12-08T06:06:45.966Z,87.47
2022-12-08T06:11:48.958Z,87.39
2022-12-08T06:16:51.960Z,87.21
2022-12-08T06:21:54.995Z,87.08
2022-12-08T06:26:57.965Z,87.00
2022-12-08T06:32:00.960Z,87.14
2022-12-08T06:37:04.004Z,86.79
2022-12-08T06:42:25.850Z,86.76
2022-12-08T06:47:28.816Z,86.49
2022-12-08T06:52:32.046Z,86.46
2022-12-08T06:57:35.586Z,86.39
2022-12-08T07:02:39.035Z,86.31
2022-12-08T07:07:42.251Z,86.35
2022-12-08T07:12:45.734Z,86.10
2022-12-08T07:17:49.223Z,85.82
2022-12-08T07:22:53.218Z,85.63
2022-12-08T07:27:56.221Z,85.53
2022-12-08T07:32:59.157Z,85.46
2022-12-08T07:38:02.528Z,84.86
2022-12-08T07:43:05.481Z,84.30
2022-12-08T07:48:08.800Z,84.19
2022-12-08T07:53:12.478Z,83.39
2022-12-08T07:58:15.443Z,83.50
2022-12-08T08:03:18.904Z,83.93
2022-12-08T08:08:21.913Z,84.15
2022-12-08T08:13:24.954Z,84.10
2022-12-08T08:18:27.867Z,83.60
2022-12-08T08:23:31.006Z,83.83
2022-12-08T08:28:34.242Z,83.75
2022-12-08T08:33:37.323Z,83.64
2022-12-08T08:38:40.356Z,83.29
2022-12-08T08:43:43.288Z,83.01
2022-12-08T08:48:46.374Z,82.46
2022-12-08T08:53:49.910Z,81.78
2022-12-08T08:58:54.221Z,81.93
2022-12-08T09:03:57.562Z,81.36
2022-12-08T09:09:01.599Z,81.69
2022-12-08T09:14:04.561Z,81.70
2022-12-08T09:19:07.650Z,81.21
2022-12-08T09:24:15.721Z,81.15
2022-12-08T09:29:18.757Z,80.78
2022-12-08T09:34:21.745Z,80.53
2022-12-08T09:39:25.138Z,80.29
2022-12-08T09:45:12.018Z,80.36
2022-12-08T09:50:23.526Z,80.30
2022-12-08T09:55:53.928Z,79.85
2022-12-08T10:00:57.293Z,80.06
2022-12-08T10:06:39.366Z,80.21
2022-12-08T10:12:17.390Z,80.71
2022-12-08T10:17:29.396Z,80.61
2022-12-08T10:22:38.661Z,80.64
2022-12-08T10:27:44.579Z,80.93
2022-12-08T10:32:54.451Z,80.94
2022-12-08T10:38:04.173Z,81.11
2022-12-08T10:43:22.118Z,81.17
2022-12-08T10:48:31.310Z,81.06
2022-12-08T10:53:49.319Z,80.58
2022-12-08T10:59:13.267Z,80.66
2022-12-08T11:04:23.315Z,80.90
2022-12-08T11:09:48.874Z,80.67
2022-12-08T11:15:03.107Z,80.87
2022-12-08T11:20:08.978Z,81.04
2022-12-08T11:25:25.224Z,80.65
2022-12-08T11:30:35.958Z,81.04
2022-12-08T11:35:46.227Z,81.04
2022-12-08T11:41:15.584Z,80.87
2022-12-08T11:46:31.675Z,80.76
2022-12-08T11:51:42.421Z,80.74
2022-12-08T11:56:50.280Z,80.91
2022-12-08T12:01:53.723Z,80.17
2022-12-08T12:07:40.649Z,79.63
2022-12-08T12:13:10.192Z,80.29
2022-12-08T12:18:38.920Z,80.06
2022-12-08T12:23:49.104Z,79.90
2022-12-08T12:29:00.244Z,79.44
2022-12-08T12:34:16.939Z,79.51
2022-12-08T12:39:30.862Z,79.42
2022-12-08T12:44:33.715Z,79.35
2022-12-08T12:49:39.373Z,79.33
2022-12-08T12:54:51.540Z,80.02
2022-12-08T12:59:55.860Z,80.07
2022-12-08T13:05:26.481Z,80.40
2022-12-08T13:11:00.924Z,81.10
2022-12-08T13:16:18.537Z,81.69
2022-12-08T13:21:31.696Z,82.46
2022-12-08T13:26:44.545Z,82.69
2022-12-08T13:31:56.338Z,83.18
2022-12-08T13:37:11.357Z,83.54
2022-12-08T13:42:42.885Z,83.29
2022-12-08T13:48:30.165Z,83.35
2022-12-08T13:54:16.282Z,83.60
2022-12-08T13:59:34.046Z,83.87
2022-12-08T14:05:09.222Z,85.04
2022-12-08T14:10:03.779Z,84.47
2022-12-08T14:15:08.117Z,84.54
2022-12-08T14:20:46.348Z,84.72
2022-12-08T14:25:57.110Z,84.53
2022-12-08T14:31:01.039Z,84.46
2022-12-08T14:36:04.643Z,84.64
2022-12-08T14:41:12.014Z,84.78
2022-12-08T14:46:23.318Z,84.87
2022-12-08T14:51:33.110Z,85.13
2022-12-08T14:56:51.852Z,85.41
2022-12-08T15:02:15.700Z,85.72
2022-12-08T15:07:27.198Z,85.89
2022-12-08T15:12:31.985Z,86.18
2022-12-08T15:18:18.182Z,86.17
2022-12-08T15:23:31.344Z,86.52
2022-12-08T15:28:35.365Z,86.79
2022-12-08T15:33:39.493Z,87.09
2022-12-08T15:38:44.176Z,87.11
2022-12-08T15:43:47.440Z,86.99
2022-12-08T15:48:54.919Z,87.29
2022-12-08T15:54:00.957Z,87.38
2022-12-08T15:59:03.950Z,87.36
2022-12-08T16:04:47.749Z,87.44
2022-12-08T16:09:38.599Z,87.49
2022-12-08T16:20:16.932Z,87.63
2022-12-08T16:25:22.307Z,87.88
2022-12-08T16:30:26.037Z,87.69
2022-12-08T16:35:29.493Z,87.48
2022-12-08T16:40:32.482Z,87.49
2022-12-08T16:45:41.532Z,87.64
2022-12-08T16:50:47.670Z,87.72
2022-12-08T16:55:50.732Z,87.65
2022-12-08T17:00:53.763Z,87.65
2022-12-08T17:05:56.691Z,87.61
2022-12-08T17:11:08.498Z,87.64
2022-12-08T17:16:19.310Z,87.86
2022-12-08T17:21:22.415Z,87.89
2022-12-08T17:26:25.412Z,87.84
2022-12-08T17:31:31.092Z,87.97
2022-12-08T17:36:34.526Z,88.07
2022-12-08T17:41:37.771Z,88.07
2022-12-08T17:46:45.256Z,88.24
2022-12-08T17:51:55.233Z,88.24
2022-12-08T17:56:59.165Z,88.26
2022-12-08T18:02:02.768Z,88.14
2022-12-08T18:07:06.193Z,88.06
2022-12-08T18:12:09.269Z,88.07
2022-12-08T18:17:12.461Z,88.00
2022-12-08T18:22:16.160Z,88.11
2022-12-08T18:27:19.198Z,87.96
2022-12-08T18:32:23.921Z,87.97
2022-12-08T18:37:27.024Z,87.97
2022-12-08T18:42:30.148Z,87.93
2022-12-08T18:47:40.951Z,87.93
2022-12-08T18:52:45.772Z,87.85
2022-12-08T18:57:48.978Z,87.81
2022-12-08T19:02:52.117Z,87.86
2022-12-08T19:07:55.143Z,87.80
2022-12-08T19:12:58.145Z,87.82
2022-12-08T19:18:01.403Z,87.86
2022-12-08T19:23:04.403Z,87.90
2022-12-08T19:28:07.661Z,87.93
2022-12-08T19:33:10.689Z,87.89
2022-12-08T19:38:13.637Z,87.87
2022-12-08T19:43:39.315Z,87.78
2022-12-08T19:48:42.411Z,87.85
2022-12-08T19:53:47.772Z,87.87
2022-12-08T19:58:51.007Z,87.88
2022-12-08T20:03:54.010Z,87.90
2022-12-08T20:08:56.992Z,87.81
2022-12-08T20:13:59.985Z,87.85
2022-12-08T20:19:03.865Z,87.91
2022-12-08T20:24:07.316Z,87.92
2022-12-08T20:29:10.388Z,87.99
2022-12-08T20:34:19.066Z,88.00
2022-12-08T20:39:22.044Z,88.04
2022-12-08T20:44:25.402Z,88.04
2022-12-08T20:49:34.198Z,88.13
2022-12-08T20:54:38.127Z,88.24
2022-12-08T20:59:41.230Z,88.37
2022-12-08T21:04:44.284Z,88.47
2022-12-08T21:09:47.844Z,88.62
2022-12-08T21:14:51.165Z,88.79
2022-12-08T21:19:54.292Z,88.87
2022-12-08T21:24:57.276Z,89.02
2022-12-08T21:30:00.349Z,89.13
2022-12-08T21:35:03.774Z,89.25
2022-12-08T21:40:08.708Z,89.32
2022-12-08T21:45:18.871Z,89.13
2022-12-08T21:50:22.136Z,89.46
2022-12-08T21:55:25.136Z,89.46
2022-12-08T22:00:28.596Z,89.41
2022-12-08T22:05:32.758Z,89.55
2022-12-08T22:10:35.989Z,89.62
2022-12-08T22:15:39.610Z,89.83
2022-12-08T22:20:44.376Z,90.01
2022-12-08T22:26:02.544Z,89.97
2022-12-08T22:31:21.196Z,89.87
2022-12-08T22:36:26.953Z,89.92
2022-12-08T22:41:30.056Z,89.93
2022-12-08T22:46:33.854Z,89.82
2022-12-08T22:51:37.716Z,89.85
2022-12-08T22:56:40.931Z,89.85
2022-12-08T23:01:44.149Z,89.94
2022-12-08T23:06:47.319Z,89.92
2022-12-08T23:11:50.574Z,89.94
2022-12-08T23:16:53.748Z,90.04
2022-12-08T23:21:56.947Z,90.20
2022-12-08T23:27:00.286Z,90.11
2022-12-08T23:32:03.903Z,90.12
2022-12-08T23:37:07.700Z,90.18
2022-12-08T23:42:11.138Z,90.11
2022-12-08T23:47:14.422Z,90.08
2022-12-08T23:52:17.717Z,90.03
2022-12-08T23:57:21.878Z,90.07
